Time;durP1;ratioP1;P1;durP2;ratioP2;P2;SDS_P1;SDS_P2;PMS_P1;PMS_P2;Temp;Humidity;BMP_temperature;BMP_pressure;BME280_temperature;BME280_humidity;BME280_pressure;Samples;Min_cycle;Max_cycle;Signal;HPM_P1;HPM_P2
2024/03/17 00:01:41;;;;;;;1.73;1.33;;;7.30;99.90;;;;;;5118059;28;20431;-82
2024/03/17 00:04:07;;;;;;;4.23;1.90;;;7.40;99.90;;;;;;5119775;28;20733;-82
2024/03/17 00:06:35;;;;;;;3.23;1.90;;;7.40;99.90;;;;;;5118697;28;20542;-82
2024/03/17 00:09:06;;;;;;;3.67;1.80;;;7.40;99.90;;;;;;5118725;28;20542;-82
2024/03/17 00:11:33;;;;;;;4.27;2.13;;;7.60;99.90;;;;;;5119500;28;20435;-82
2024/03/17 00:14:01;;;;;;;0.80;0.80;;;7.50;99.90;;;;;;5120463;28;20443;-82
2024/03/17 00:16:28;;;;;;;2.50;1.57;;;7.50;99.90;;;;;;5119075;28;20819;-82
2024/03/17 00:18:53;;;;;;;4.47;1.23;;;7.40;99.90;;;;;;5120786;28;20459;-82
2024/03/17 00:21:20;;;;;;;6.13;1.30;;;7.50;99.90;;;;;;5118927;28;20449;-83
2024/03/17 00:23:49;;;;;;;2.87;2.27;;;7.50;99.90;;;;;;5116925;28;20545;-82
2024/03/17 00:26:16;;;;;;;1.50;1.40;;;7.40;99.90;;;;;;5120267;28;20474;-82
2024/03/17 00:28:42;;;;;;;10.93;1.97;;;7.40;99.90;;;;;;5117017;28;20473;-82
2024/03/17 00:31:09;;;;;;;2.93;1.70;;;7.40;99.90;;;;;;5116932;28;20443;-82
2024/03/17 00:33:35;;;;;;;2.60;1.37;;;7.40;99.90;;;;;;5118109;28;20205;-81
2024/03/17 00:36:02;;;;;;;1.60;1.50;;;7.40;99.90;;;;;;5123978;28;20483;-80
2024/03/17 00:38:29;;;;;;;2.73;1.57;;;7.40;99.90;;;;;;5139385;28;20281;-82
2024/03/17 00:40:57;;;;;;;5.17;1.60;;;7.40;99.90;;;;;;5139452;28;20427;-85
2024/03/17 00:43:24;;;;;;;3.43;1.83;;;7.40;99.90;;;;;;5139423;28;20438;-82
2024/03/17 00:45:51;;;;;;;2.50;1.53;;;7.30;99.90;;;;;;5139444;28;20506;-80
2024/03/17 00:48:18;;;;;;;5.00;2.13;;;7.30;99.90;;;;;;5119136;28;20550;-81
2024/03/17 00:50:44;;;;;;;2.07;1.80;;;7.30;99.90;;;;;;5122512;28;20427;-81
2024/03/17 00:53:11;;;;;;;2.57;1.63;;;7.30;99.90;;;;;;5121721;28;20456;-81
2024/03/17 00:55:37;;;;;;;2.60;2.00;;;7.30;99.90;;;;;;5120381;28;20446;-81
2024/03/17 00:58:06;;;;;;;5.17;2.23;;;7.30;99.90;;;;;;5121239;28;20517;-81
2024/03/17 01:00:32;;;;;;;3.40;1.97;;;7.30;99.90;;;;;;5120783;28;20533;-81
2024/03/17 01:02:59;;;;;;;3.03;1.40;;;7.20;99.90;;;;;;5123214;28;20473;-80
2024/03/17 01:05:25;;;;;;;2.40;1.03;;;7.20;99.90;;;;;;5125021;28;20443;-80
2024/03/17 01:07:52;;;;;;;2.37;1.57;;;7.20;99.90;;;;;;5124325;28;20522;-81
2024/03/17 01:10:19;;;;;;;3.17;2.30;;;7.30;99.90;;;;;;5123479;28;20236;-80
2024/03/17 01:12:46;;;;;;;1.63;1.13;;;7.20;99.90;;;;;;5123584;28;20535;-81
2024/03/17 01:15:13;;;;;;;5.53;2.10;;;7.50;99.90;;;;;;5123814;28;20480;-79
2024/03/17 01:17:41;;;;;;;1.93;1.50;;;7.20;99.90;;;;;;5122737;28;20908;-81
2024/03/17 01:20:21;;;;;;;4.70;2.23;;;7.10;99.90;;;;;;5131007;28;20446;-81
2024/03/17 01:22:48;;;;;;;3.63;1.63;;;7.20;99.90;;;;;;5130206;28;20431;-80
2024/03/17 01:25:15;;;;;;;3.70;2.60;;;7.30;99.90;;;;;;5123836;28;20459;-81
2024/03/17 01:27:43;;;;;;;4.00;2.60;;;7.30;99.90;;;;;;5121876;28;20557;-80
2024/03/17 01:30:10;;;;;;;2.60;2.03;;;7.40;99.90;;;;;;5121877;28;20950;-81
2024/03/17 01:32:38;;;;;;;3.30;2.30;;;7.40;99.90;;;;;;5119874;28;20438;-82
2024/03/17 01:35:06;;;;;;;2.70;1.70;;;7.50;99.90;;;;;;5120366;28;20446;-82
2024/03/17 01:37:33;;;;;;;4.80;2.00;;;7.50;99.90;;;;;;5118561;28;20479;-82
2024/03/17 01:39:59;;;;;;;4.50;2.50;;;7.60;99.90;;;;;;5117967;28;20443;-82
2024/03/17 01:42:26;;;;;;;5.30;2.67;;;7.60;99.90;;;;;;5117943;28;20450;-82
2024/03/17 01:44:51;;;;;;;2.30;1.37;;;7.60;99.90;;;;;;5117932;28;20670;-81
2024/03/17 01:47:19;;;;;;;4.30;2.50;;;7.70;99.90;;;;;;5117598;28;20443;-81
2024/03/17 01:49:47;;;;;;;3.53;2.13;;;7.80;99.90;;;;;;5117434;28;20246;-82
2024/03/17 01:52:14;;;;;;;2.47;2.17;;;7.80;99.90;;;;;;5117278;27;20479;-81
2024/03/17 01:54:40;;;;;;;4.13;2.83;;;7.70;99.90;;;;;;5117177;28;20944;-82
2024/03/17 01:57:07;;;;;;;3.97;2.40;;;7.90;99.90;;;;;;5117270;28;20478;-83
2024/03/17 01:59:33;;;;;;;4.27;2.10;;;7.90;99.90;;;;;;5116693;28;20987;-82
2024/03/17 02:02:01;;;;;;;2.00;1.47;;;7.80;99.90;;;;;;5116759;28;20447;-82
2024/03/17 02:04:27;;;;;;;6.50;2.37;;;8.00;99.90;;;;;;5117527;28;20431;-82
2024/03/17 02:06:55;;;;;;;4.03;2.03;;;7.90;99.90;;;;;;5117752;28;20443;-83
2024/03/17 02:09:22;;;;;;;3.03;2.17;;;7.90;99.90;;;;;;5117321;28;20473;-82
2024/03/17 02:11:48;;;;;;;4.90;1.97;;;8.00;99.90;;;;;;5117287;28;20435;-81
2024/03/17 02:14:17;;;;;;;3.93;2.43;;;8.00;99.90;;;;;;5120046;28;20442;-81
2024/03/17 02:16:44;;;;;;;1.97;1.80;;;8.30;99.90;;;;;;5117521;28;20987;-82
2024/03/17 02:19:10;;;;;;;3.00;1.87;;;7.90;99.90;;;;;;5117983;28;20516;-81
2024/03/17 02:21:37;;;;;;;3.97;2.60;;;7.90;99.90;;;;;;5117925;28;20439;-82
2024/03/17 02:24:04;;;;;;;2.93;2.40;;;7.90;99.90;;;;;;5118477;28;20205;-81
2024/03/17 02:26:31;;;;;;;5.80;3.50;;;7.90;99.90;;;;;;5118291;28;20451;-82
2024/03/17 02:28:57;;;;;;;9.17;2.30;;;7.80;99.90;;;;;;5117954;28;20469;-82
2024/03/17 02:31:24;;;;;;;2.23;1.70;;;7.80;99.90;;;;;;5118267;28;20428;-81
2024/03/17 02:33:50;;;;;;;3.47;1.93;;;7.80;99.90;;;;;;5117912;28;20195;-81
2024/03/17 02:36:17;;;;;;;11.60;3.00;;;7.80;99.90;;;;;;5117636;28;20835;-81
2024/03/17 02:41:30;;;;;;;4.03;2.60;;;7.90;99.90;;;;;;5117048;28;20406;-82
2024/03/17 02:43:56;;;;;;;2.30;2.10;;;7.80;99.90;;;;;;5116829;28;20940;-82
2024/03/17 02:46:24;;;;;;;3.83;2.10;;;7.80;99.90;;;;;;5116689;28;20435;-81
2024/03/17 02:48:53;;;;;;;4.63;2.73;;;7.80;99.90;;;;;;5116972;28;20843;-82
2024/03/17 02:51:21;;;;;;;2.40;1.63;;;7.70;99.90;;;;;;5116930;28;20447;-82
2024/03/17 02:53:49;;;;;;;3.53;1.63;;;7.60;99.90;;;;;;5117491;28;20953;-81
2024/03/17 02:56:18;;;;;;;5.53;2.50;;;7.80;99.90;;;;;;5118510;28;20439;-81
2024/03/17 02:58:47;;;;;;;2.40;1.90;;;7.90;99.90;;;;;;5118678;28;20489;-81
2024/03/17 03:01:15;;;;;;;4.20;1.80;;;7.60;99.90;;;;;;5117965;28;20428;-81
2024/03/17 03:03:42;;;;;;;3.63;1.77;;;7.60;99.90;;;;;;5119805;28;20442;-81
2024/03/17 03:06:11;;;;;;;4.13;2.30;;;7.60;99.90;;;;;;5119156;28;20443;-81
2024/03/17 03:08:39;;;;;;;4.07;2.30;;;7.60;99.90;;;;;;5118283;28;20459;-82
2024/03/17 03:11:10;;;;;;;9.33;3.77;;;7.50;99.90;;;;;;5118030;28;20431;-81
2024/03/17 03:13:37;;;;;;;2.83;2.07;;;7.50;99.90;;;;;;5118308;28;20427;-81
2024/03/17 03:16:06;;;;;;;2.43;1.47;;;7.50;99.90;;;;;;5118283;28;20433;-82
2024/03/17 03:18:33;;;;;;;4.13;2.20;;;7.50;99.90;;;;;;5117315;28;20475;-82
2024/03/17 03:21:00;;;;;;;6.23;3.17;;;7.50;99.90;;;;;;5118301;28;20796;-81
2024/03/17 03:23:27;;;;;;;6.17;1.87;;;8.70;99.90;;;;;;5117895;28;20530;-82
2024/03/17 03:25:57;;;;;;;5.80;2.33;;;7.70;99.90;;;;;;5118229;28;20455;-82
2024/03/17 03:28:24;;;;;;;4.53;2.00;;;7.60;99.90;;;;;;5115784;28;20971;-81
2024/03/17 03:30:51;;;;;;;4.33;2.03;;;7.50;99.90;;;;;;5116322;28;21021;-81
2024/03/17 03:33:19;;;;;;;2.93;2.13;;;7.50;99.90;;;;;;5117129;28;20776;-81
2024/03/17 03:35:46;;;;;;;4.00;1.80;;;7.50;99.90;;;;;;5116576;28;20456;-81
2024/03/17 03:38:14;;;;;;;4.10;3.27;;;7.40;99.90;;;;;;5115890;28;20479;-81
2024/03/17 03:40:41;;;;;;;2.63;2.40;;;7.50;99.90;;;;;;5116808;28;20936;-81
2024/03/17 03:43:08;;;;;;;4.70;3.03;;;7.40;99.90;;;;;;5123021;28;20450;-81
2024/03/17 03:45:35;;;;;;;3.53;1.80;;;7.40;99.90;;;;;;5140247;28;20502;-82
2024/03/17 03:48:03;;;;;;;5.03;3.17;;;7.40;99.90;;;;;;5140045;28;20455;-83
2024/03/17 03:50:33;;;;;;;4.87;2.30;;;7.50;99.90;;;;;;5139989;28;20453;-81
2024/03/17 03:52:59;;;;;;;1.63;1.47;;;7.50;99.90;;;;;;5119485;28;20475;-81
2024/03/17 03:55:26;;;;;;;1.60;1.50;;;7.50;99.90;;;;;;5116316;28;20442;-82
2024/03/17 03:57:53;;;;;;;2.33;1.67;;;7.50;99.90;;;;;;5115826;28;21003;-82
2024/03/17 04:00:21;;;;;;;2.60;1.90;;;7.50;99.90;;;;;;5116736;28;20418;-82
2024/03/17 04:02:50;;;;;;;4.60;2.73;;;7.90;99.90;;;;;;5118714;28;20439;-81
2024/03/17 04:05:17;;;;;;;3.00;1.70;;;7.60;99.90;;;;;;5117352;28;20439;-82
2024/03/17 04:07:46;;;;;;;4.13;1.37;;;7.60;99.90;;;;;;5118930;28;20462;-81
2024/03/17 04:10:13;;;;;;;3.80;2.10;;;7.50;99.90;;;;;;5119878;28;20442;-82
2024/03/17 04:12:41;;;;;;;2.63;1.90;;;7.50;99.90;;;;;;5123012;28;20454;-81
2024/03/17 04:15:10;;;;;;;1.93;1.63;;;7.40;99.90;;;;;;5121464;28;20431;-82
2024/03/17 04:17:37;;;;;;;3.10;1.70;;;7.40;99.90;;;;;;5118937;28;20855;-82
2024/03/17 04:20:05;;;;;;;3.03;1.57;;;7.30;99.90;;;;;;5118545;28;20887;-82
2024/03/17 04:22:32;;;;;;;4.10;2.00;;;7.30;99.90;;;;;;5118051;28;20454;-81
2024/03/17 04:25:00;;;;;;;4.77;2.53;;;7.30;99.90;;;;;;5116489;28;20443;-81
2024/03/17 04:27:28;;;;;;;2.27;1.67;;;7.20;99.90;;;;;;5117348;28;21005;-81
2024/03/17 04:29:55;;;;;;;8.43;2.23;;;7.40;99.90;;;;;;5119816;28;20439;-82
2024/03/17 04:32:23;;;;;;;3.97;2.50;;;7.40;99.90;;;;;;5118561;28;20809;-82
2024/03/17 04:34:50;;;;;;;5.50;2.17;;;7.50;99.90;;;;;;5118377;28;20798;-81
2024/03/17 04:37:17;;;;;;;8.73;2.73;;;7.40;99.90;;;;;;5119463;28;20812;-81
2024/03/17 04:39:45;;;;;;;2.57;1.83;;;7.40;99.90;;;;;;5119426;28;20484;-81
2024/03/17 04:42:15;;;;;;;2.23;1.90;;;7.40;99.90;;;;;;5118397;28;20500;-82
2024/03/17 04:44:42;;;;;;;1.47;1.37;;;7.30;99.90;;;;;;5116957;28;20788;-81
2024/03/17 04:47:10;;;;;;;3.00;2.23;;;7.30;99.90;;;;;;5118859;28;20439;-82
2024/03/17 04:49:37;;;;;;;3.17;1.73;;;7.30;99.90;;;;;;5120411;28;20470;-82
2024/03/17 04:52:04;;;;;;;1.70;1.60;;;7.40;99.90;;;;;;5122013;28;20442;-82
2024/03/17 04:54:32;;;;;;;2.70;2.27;;;7.30;99.90;;;;;;5121914;28;20471;-82
2024/03/17 04:56:59;;;;;;;2.40;2.13;;;7.30;99.90;;;;;;5122858;28;20434;-82
2024/03/17 04:59:27;;;;;;;4.50;2.17;;;7.30;99.90;;;;;;5119607;28;20479;-82
2024/03/17 05:01:55;;;;;;;5.27;2.00;;;7.30;99.90;;;;;;5118487;28;20954;-82
2024/03/17 05:04:22;;;;;;;2.90;2.43;;;7.30;99.90;;;;;;5120490;28;20514;-82
2024/03/17 05:06:50;;;;;;;3.03;2.13;;;7.30;99.90;;;;;;5120421;28;20943;-81
2024/03/17 05:09:17;;;;;;;2.13;1.63;;;7.30;99.90;;;;;;5121542;28;20474;-82
2024/03/17 05:11:44;;;;;;;2.63;1.20;;;7.30;99.90;;;;;;5122500;28;20788;-81
2024/03/17 05:14:12;;;;;;;2.17;1.20;;;7.30;99.90;;;;;;5123250;28;20484;-81
2024/03/17 05:16:40;;;;;;;2.47;2.27;;;7.30;99.90;;;;;;5121800;28;20529;-82
2024/03/17 05:19:09;;;;;;;2.63;2.03;;;7.30;99.90;;;;;;5120239;28;20479;-81
2024/03/17 05:21:36;;;;;;;2.70;1.80;;;7.20;99.90;;;;;;5120390;28;20474;-81
2024/03/17 05:24:03;;;;;;;3.23;1.87;;;7.20;99.90;;;;;;5121787;28;20435;-81
2024/03/17 05:27:09;;;;;;;2.53;1.87;;;7.20;99.90;;;;;;5122167;28;20932;-82
2024/03/17 05:29:37;;;;;;;1.97;1.40;;;7.20;99.90;;;;;;5127465;28;20454;-81
2024/03/17 05:35:52;;;;;;;1.73;1.57;;;7.20;99.90;;;;;;5114180;27;20446;-82
2024/03/17 05:38:20;;;;;;;2.60;2.30;;;7.10;99.90;;;;;;5127919;28;20523;-82
2024/03/17 06:04:44;;;;;;;4.37;1.73;;;7.00;99.90;;;;;;4991402;28;20436;-82
2024/03/17 06:17:43;;;;;;;4.93;2.03;;;7.20;99.90;;;;;;4960922;28;20498;-82
2024/03/17 06:20:13;;;;;;;1.93;1.57;;;7.30;99.90;;;;;;5025372;28;20447;-82
2024/03/17 06:22:40;;;;;;;3.83;2.27;;;7.40;99.90;;;;;;5103909;28;20478;-81
2024/03/17 06:25:07;;;;;;;6.33;2.33;;;7.40;99.90;;;;;;5120160;28;20939;-82
2024/03/17 06:27:34;;;;;;;3.37;1.57;;;7.60;99.90;;;;;;5118493;28;20455;-82
2024/03/17 06:30:03;;;;;;;3.43;2.10;;;7.70;99.90;;;;;;5118773;28;20955;-81
2024/03/17 06:32:31;;;;;;;4.10;2.50;;;7.90;99.90;;;;;;5119494;28;20439;-82
2024/03/17 06:34:58;;;;;;;2.80;1.80;;;8.10;99.90;;;;;;5120239;27;20480;-83
2024/03/17 06:37:26;;;;;;;7.47;3.20;;;8.20;99.90;;;;;;5119787;28;20518;-82
2024/03/17 06:39:53;;;;;;;5.63;3.50;;;8.40;99.90;;;;;;5120415;28;20450;-82
2024/03/17 06:42:20;;;;;;;2.17;1.97;;;8.40;99.90;;;;;;5119997;28;20813;-82
2024/03/17 06:44:46;;;;;;;3.93;2.00;;;8.50;99.90;;;;;;5119542;28;20443;-82
2024/03/17 06:47:13;;;;;;;3.30;1.67;;;8.70;99.90;;;;;;5119458;28;20457;-83
2024/03/17 06:49:40;;;;;;;5.03;2.73;;;8.80;99.90;;;;;;5120361;28;20454;-82
2024/03/17 06:52:07;;;;;;;5.37;2.60;;;9.00;99.90;;;;;;5133383;28;20457;-83
2024/03/17 06:54:35;;;;;;;5.00;2.70;;;9.20;99.90;;;;;;5137656;28;20447;-83
2024/03/17 06:57:02;;;;;;;4.57;2.07;;;9.50;99.90;;;;;;5135722;28;20456;-83
2024/03/17 06:59:29;;;;;;;2.30;1.70;;;9.60;99.90;;;;;;5133459;28;20493;-83
2024/03/17 07:01:56;;;;;;;2.60;2.17;;;9.70;99.90;;;;;;5125757;28;20439;-84
2024/03/17 07:04:22;;;;;;;2.90;1.43;;;9.80;99.90;;;;;;5122324;28;20428;-83
2024/03/17 07:06:50;;;;;;;2.40;2.20;;;9.80;99.90;;;;;;5121439;28;20451;-83
2024/03/17 07:09:18;;;;;;;2.60;2.23;;;9.90;99.90;;;;;;5121246;28;20475;-83
2024/03/17 07:11:46;;;;;;;3.27;2.07;;;9.90;99.90;;;;;;5120444;28;20504;-82
2024/03/17 07:14:12;;;;;;;1.20;1.07;;;9.80;99.90;;;;;;5120682;28;20454;-83
2024/03/17 07:16:39;;;;;;;6.00;2.30;;;9.80;99.90;;;;;;5120170;28;20936;-83
2024/03/17 07:19:06;;;;;;;3.50;1.97;;;10.10;99.90;;;;;;5120223;28;20483;-83
2024/03/17 07:21:33;;;;;;;2.70;1.93;;;9.90;99.90;;;;;;5119672;28;20522;-83
2024/03/17 07:24:04;;;;;;;1.87;1.40;;;10.10;99.90;;;;;;5119388;28;20447;-82
2024/03/17 07:26:31;;;;;;;2.40;1.20;;;10.20;99.90;;;;;;5119390;28;20432;-83
2024/03/17 07:28:59;;;;;;;4.60;1.83;;;10.50;99.90;;;;;;5118976;28;20821;-83
2024/03/17 07:31:26;;;;;;;2.70;1.60;;;10.40;99.90;;;;;;5118018;28;20431;-83
2024/03/17 07:33:52;;;;;;;1.80;1.47;;;10.50;99.90;;;;;;5118933;28;20453;-84
2024/03/17 07:36:21;;;;;;;2.37;1.37;;;11.10;99.90;;;;;;5118616;28;20779;-83
2024/03/17 07:38:48;;;;;;;3.37;2.30;;;10.70;99.90;;;;;;5117865;28;20470;-83
2024/03/17 07:41:15;;;;;;;3.77;2.50;;;10.90;99.90;;;;;;5117866;28;20485;-84
2024/03/17 07:43:42;;;;;;;3.30;1.63;;;11.00;99.90;;;;;;5121190;28;20443;-83
2024/03/17 07:46:12;;;;;;;1.83;1.73;;;11.20;99.90;;;;;;5118196;28;20453;-83
2024/03/17 07:48:40;;;;;;;3.57;1.53;;;11.30;99.90;;;;;;5117995;28;21024;-83
2024/03/17 07:51:09;;;;;;;1.90;1.80;;;11.40;99.90;;;;;;5118076;28;20436;-83
2024/03/17 07:53:36;;;;;;;4.50;1.90;;;11.60;99.90;;;;;;5118141;28;20443;-83
2024/03/17 07:56:05;;;;;;;2.57;2.00;;;11.70;99.90;;;;;;5117751;28;20443;-83
2024/03/17 07:58:33;;;;;;;3.83;2.07;;;11.80;99.90;;;;;;5116000;28;21007;-83
2024/03/17 08:01:01;;;;;;;5.03;2.60;;;11.80;99.90;;;;;;5117372;28;20435;-83
2024/03/17 08:03:31;;;;;;;3.10;1.90;;;11.80;99.90;;;;;;5117210;28;20426;-82
2024/03/17 08:05:58;;;;;;;2.03;1.50;;;11.60;99.90;;;;;;5117397;28;20439;-83
2024/03/17 08:08:25;;;;;;;2.50;1.93;;;11.60;99.90;;;;;;5124148;27;20469;-82
2024/03/17 08:10:52;;;;;;;1.70;1.60;;;11.80;99.90;;;;;;5137805;27;20481;-83
2024/03/17 08:13:19;;;;;;;2.70;1.60;;;11.90;99.90;;;;;;5137966;27;20442;-82
2024/03/17 08:15:47;;;;;;;3.00;1.97;;;11.90;99.90;;;;;;5136945;27;20466;-82
2024/03/17 08:18:14;;;;;;;4.30;1.63;;;12.00;99.90;;;;;;5144031;27;20845;-83
2024/03/17 08:20:43;;;;;;;1.63;1.53;;;12.10;99.90;;;;;;5140176;27;20541;-83
2024/03/17 08:23:11;;;;;;;3.43;2.10;;;12.20;99.90;;;;;;5139638;28;20429;-83
2024/03/17 08:25:38;;;;;;;2.07;1.53;;;12.30;99.90;;;;;;5139807;28;20450;-83
2024/03/17 08:28:05;;;;;;;4.17;1.80;;;12.70;99.90;;;;;;5138884;28;20458;-83
2024/03/17 08:30:32;;;;;;;2.30;2.10;;;12.50;99.90;;;;;;5138904;28;20446;-83
2024/03/17 08:32:59;;;;;;;2.17;1.73;;;12.60;99.90;;;;;;5139579;28;20450;-83
2024/03/17 08:35:26;;;;;;;2.87;2.00;;;12.80;99.90;;;;;;5138906;28;20943;-83
2024/03/17 08:37:54;;;;;;;2.23;1.83;;;12.90;99.90;;;;;;5138505;28;20963;-83
2024/03/17 08:40:22;;;;;;;2.00;1.80;;;13.10;99.90;;;;;;5139606;27;20805;-83
2024/03/17 08:42:49;;;;;;;2.70;2.00;;;13.10;99.90;;;;;;5139162;28;20442;-83
2024/03/17 08:45:16;;;;;;;1.83;1.73;;;13.10;99.90;;;;;;5138526;28;20961;-83
2024/03/17 08:47:43;;;;;;;2.10;1.57;;;13.20;99.90;;;;;;5139196;28;20825;-83
2024/03/17 08:50:12;;;;;;;3.93;0.90;;;13.30;99.90;;;;;;5138471;27;20533;-83
2024/03/17 08:52:39;;;;;;;2.57;2.07;;;13.50;99.90;;;;;;5138474;28;20538;-83
2024/03/17 08:55:13;;;;;;;1.87;1.33;;;13.70;99.90;;;;;;5138347;28;20457;-83
2024/03/17 08:57:40;;;;;;;2.27;1.27;;;13.90;99.90;;;;;;5138000;28;20522;-83
2024/03/17 09:00:09;;;;;;;3.93;1.70;;;14.10;99.90;;;;;;5138887;28;20473;-83
2024/03/17 09:02:35;;;;;;;2.93;1.50;;;13.90;99.90;;;;;;5138325;27;20460;-82
2024/03/17 09:05:04;;;;;;;1.53;1.43;;;13.90;99.90;;;;;;5138353;28;20427;-83
2024/03/17 09:07:30;;;;;;;3.10;1.47;;;13.60;99.90;;;;;;5138406;28;20474;-83
2024/03/17 09:09:57;;;;;;;5.93;2.60;;;13.50;99.90;;;;;;5139012;27;20972;-83
2024/03/17 09:12:25;;;;;;;1.93;1.73;;;13.70;99.90;;;;;;5141480;27;20434;-84
2024/03/17 09:14:52;;;;;;;2.30;2.07;;;13.80;99.90;;;;;;5141235;27;20434;-83
2024/03/17 09:17:20;;;;;;;1.33;1.23;;;13.80;99.90;;;;;;5141342;27;20445;-83
2024/03/17 09:19:47;;;;;;;1.40;1.30;;;13.60;99.90;;;;;;5141210;27;20537;-83
2024/03/17 09:22:14;;;;;;;4.30;1.70;;;13.60;99.90;;;;;;5141311;27;20453;-83
2024/03/17 09:24:41;;;;;;;2.60;1.30;;;13.70;99.90;;;;;;5141407;27;20449;-83
2024/03/17 09:27:09;;;;;;;2.90;1.30;;;13.80;99.90;;;;;;5141172;27;20434;-83
2024/03/17 09:29:37;;;;;;;2.50;1.50;;;13.70;99.90;;;;;;5141322;27;20439;-83
2024/03/17 09:32:05;;;;;;;2.87;1.60;;;13.70;99.90;;;;;;5141083;27;20446;-83
2024/03/17 09:34:31;;;;;;;2.33;1.50;;;13.90;99.90;;;;;;5140904;27;20426;-83
2024/03/17 09:36:58;;;;;;;4.50;1.50;;;14.30;99.90;;;;;;5140596;27;20435;-83
2024/03/17 09:39:25;;;;;;;2.60;1.30;;;14.40;99.90;;;;;;5140418;27;20482;-84
2024/03/17 09:41:51;;;;;;;1.60;1.30;;;14.50;99.90;;;;;;5140081;27;20438;-83
2024/03/17 09:44:18;;;;;;;6.00;1.50;;;14.40;99.90;;;;;;5140584;27;20431;-83
2024/03/17 09:46:46;;;;;;;1.67;1.57;;;14.30;99.90;;;;;;5140098;27;20438;-83
2024/03/17 09:49:16;;;;;;;1.20;1.10;;;13.90;99.90;;;;;;5140746;27;20455;-83
2024/03/17 09:51:43;;;;;;;1.30;1.20;;;13.90;99.90;;;;;;5140990;27;20855;-83
2024/03/17 09:54:18;;;;;;;1.30;1.20;;;13.70;99.90;;;;;;5140375;27;20927;-83
2024/03/17 09:56:45;;;;;;;1.00;0.90;;;13.80;99.90;;;;;;5142433;27;20422;-83
2024/03/17 09:59:12;;;;;;;1.90;1.37;;;13.90;99.90;;;;;;5159703;27;20482;-83
2024/03/17 10:01:39;;;;;;;1.53;1.43;;;14.10;99.90;;;;;;5160607;27;20429;-83
2024/03/17 10:04:10;;;;;;;2.30;1.43;;;14.50;99.90;;;;;;5158734;27;20448;-83
2024/03/17 10:06:46;;;;;;;1.53;1.13;;;14.60;99.90;;;;;;5148851;27;20430;-83
2024/03/17 10:09:20;;;;;;;2.70;1.30;;;15.40;99.90;;;;;;5142328;27;20457;-83
2024/03/17 10:11:48;;;;;;;0.90;0.90;;;16.30;99.90;;;;;;5142178;27;20508;-83
2024/03/17 10:14:18;;;;;;;0.97;0.97;;;17.60;99.90;;;;;;5141207;27;20453;-83
2024/03/17 10:16:45;;;;;;;1.00;1.00;;;18.90;99.90;;;;;;5148275;27;20857;-83
2024/03/17 10:19:14;;;;;;;1.17;1.07;;;19.90;99.90;;;;;;5142651;27;20478;-83
2024/03/17 10:21:43;;;;;;;1.70;1.60;;;20.30;99.90;;;;;;5141190;27;20521;-83
2024/03/17 10:24:11;;;;;;;1.53;1.30;;;20.00;99.90;;;;;;5141758;27;20442;-84
2024/03/17 10:26:41;;;;;;;1.90;0.90;;;19.50;99.90;;;;;;5141888;27;20446;-83
2024/03/17 10:29:21;;;;;;;2.40;1.13;;;19.10;99.90;;;;;;5140690;27;20458;-83
2024/03/17 10:31:48;;;;;;;3.90;1.33;;;17.70;99.90;;;;;;5140370;27;20418;-83
2024/03/17 10:34:18;;;;;;;1.40;1.30;;;16.90;99.90;;;;;;5140218;27;20434;-83
2024/03/17 10:36:47;;;;;;;1.00;0.90;;;16.40;99.90;;;;;;5141430;27;20422;-83
2024/03/17 10:39:28;;;;;;;1.67;1.10;;;16.00;99.90;;;;;;5141123;27;20486;-83
2024/03/17 10:42:00;;;;;;;1.63;1.53;;;15.90;99.90;;;;;;5141002;27;20433;-83
2024/03/17 10:44:27;;;;;;;1.70;1.30;;;15.90;99.90;;;;;;5141661;27;20422;-83
2024/03/17 10:46:56;;;;;;;1.23;1.10;;;15.80;99.90;;;;;;5141831;27;20442;-83
2024/03/17 10:49:31;;;;;;;2.10;1.90;;;15.70;99.90;;;;;;5141741;27;20511;-83
2024/03/17 10:51:59;;;;;;;1.40;1.30;;;16.50;99.90;;;;;;5140386;27;20430;-84
2024/03/17 10:54:28;;;;;;;1.10;1.00;;;17.30;99.90;;;;;;5140982;27;20431;-83
2024/03/17 10:56:57;;;;;;;1.40;1.30;;;17.50;99.90;;;;;;5140924;27;20450;-83
2024/03/17 10:59:33;;;;;;;1.57;1.30;;;17.40;99.90;;;;;;5139470;27;20482;-83
2024/03/17 11:02:02;;;;;;;0.60;0.60;;;17.00;99.90;;;;;;5139580;27;20426;-87
2024/03/17 11:04:31;;;;;;;0.70;0.70;;;16.80;99.90;;;;;;5139720;27;20449;-83
2024/03/17 11:07:00;;;;;;;3.03;0.57;;;16.60;99.90;;;;;;5139058;27;20446;-83
2024/03/17 11:09:27;;;;;;;0.70;0.60;;;16.90;99.90;;;;;;5140082;27;20497;-83
2024/03/17 11:11:54;;;;;;;0.70;0.70;;;17.00;99.90;;;;;;5137149;27;20947;-83
2024/03/17 11:14:22;;;;;;;0.93;0.83;;;17.10;99.90;;;;;;5138823;27;20442;-83
2024/03/17 11:16:49;;;;;;;0.60;0.60;;;17.10;99.90;;;;;;5139243;27;20450;-83
2024/03/17 11:19:17;;;;;;;0.60;0.60;;;17.00;99.90;;;;;;5138405;27;20488;-83
2024/03/17 11:21:45;;;;;;;1.00;0.80;;;16.70;99.90;;;;;;5138810;27;20427;-83
2024/03/17 11:24:24;;;;;;;0.70;0.70;;;16.70;99.90;;;;;;5138631;27;20450;-83
2024/03/17 11:26:51;;;;;;;0.77;0.60;;;16.60;99.90;;;;;;5139171;27;20431;-83
2024/03/17 11:29:29;;;;;;;1.33;0.97;;;16.60;99.90;;;;;;5138339;27;20461;-83
2024/03/17 11:31:55;;;;;;;2.20;1.30;;;16.40;99.90;;;;;;5138655;27;20429;-83
2024/03/17 11:34:33;;;;;;;1.83;0.77;;;16.40;99.90;;;;;;5138237;27;20802;-83
2024/03/17 11:37:01;;;;;;;1.20;1.00;;;16.30;99.90;;;;;;5144682;27;20486;-83
2024/03/17 11:39:56;;;;;;;1.10;1.00;;;16.20;99.90;;;;;;5141286;27;20527;-83
2024/03/17 11:42:26;;;;;;;0.73;0.73;;;16.20;99.90;;;;;;5141944;27;20415;-83
2024/03/17 11:45:00;;;;;;;0.93;0.70;;;16.30;99.90;;;;;;5140590;27;20830;-83
2024/03/17 11:47:37;;;;;;;0.67;0.67;;;16.30;99.90;;;;;;5142288;27;20450;-82
2024/03/17 11:50:08;;;;;;;4.83;0.83;;;16.20;99.90;;;;;;5141099;27;20437;-83
2024/03/17 11:52:36;;;;;;;2.10;0.83;;;16.20;99.90;;;;;;5139754;27;20430;-83
2024/03/17 11:55:03;;;;;;;0.60;0.60;;;16.30;99.90;;;;;;5139039;27;20458;-83
2024/03/17 11:57:29;;;;;;;0.70;0.70;;;16.20;99.90;;;;;;5138559;27;20466;-83
2024/03/17 11:59:57;;;;;;;3.10;0.90;;;16.20;99.90;;;;;;5138947;27;20590;-83
2024/03/17 12:02:26;;;;;;;0.67;0.67;;;16.20;99.90;;;;;;5118139;28;20200;-83
2024/03/17 12:04:54;;;;;;;0.60;0.50;;;16.30;99.90;;;;;;5117959;28;20438;-83
2024/03/17 12:07:23;;;;;;;0.80;0.80;;;16.20;99.90;;;;;;5118526;28;20439;-83
2024/03/17 12:09:53;;;;;;;0.70;0.70;;;16.20;99.90;;;;;;5117715;28;20443;-83
2024/03/17 12:12:21;;;;;;;1.67;1.13;;;16.20;99.90;;;;;;5117645;28;20435;-83
2024/03/17 12:14:48;;;;;;;0.70;0.70;;;16.20;99.90;;;;;;5122827;28;20439;-83
2024/03/17 12:17:21;;;;;;;2.90;1.10;;;16.10;99.90;;;;;;5119438;28;20438;-83
2024/03/17 12:19:48;;;;;;;0.60;0.60;;;16.00;99.90;;;;;;5119490;28;20490;-83
2024/03/17 12:22:17;;;;;;;0.50;0.50;;;15.80;99.90;;;;;;5119202;28;20863;-83
2024/03/17 12:24:46;;;;;;;1.43;0.70;;;15.80;99.90;;;;;;5119234;28;20486;-83
2024/03/17 12:27:19;;;;;;;3.07;0.80;;;15.70;99.90;;;;;;5118988;28;20443;-84
2024/03/17 12:29:46;;;;;;;1.00;0.87;;;15.70;99.90;;;;;;5117803;28;20427;-83
2024/03/17 12:32:14;;;;;;;0.80;0.80;;;15.50;99.90;;;;;;5118009;28;20940;-83
2024/03/17 12:34:42;;;;;;;0.90;0.90;;;15.50;99.90;;;;;;5118121;28;20435;-83
2024/03/17 12:37:08;;;;;;;0.73;0.73;;;15.40;99.90;;;;;;5117943;28;20446;-83
2024/03/17 12:39:39;;;;;;;0.60;0.60;;;15.60;99.90;;;;;;5118089;28;20830;-83
2024/03/17 12:42:06;;;;;;;0.73;0.73;;;15.60;99.90;;;;;;5117697;28;20186;-83
2024/03/17 12:44:35;;;;;;;1.33;1.00;;;15.70;99.90;;;;;;5117966;28;20442;-83
2024/03/17 12:47:03;;;;;;;2.83;0.80;;;15.80;99.90;;;;;;5121752;28;20451;-83
2024/03/17 12:49:30;;;;;;;0.97;0.90;;;15.80;99.90;;;;;;5121730;28;20482;-83
2024/03/17 12:51:56;;;;;;;0.70;0.70;;;15.70;99.90;;;;;;5121676;28;20447;-83
2024/03/17 12:54:25;;;;;;;4.53;0.80;;;15.40;99.90;;;;;;5122478;28;20452;-83
2024/03/17 13:02:28;;;;;;;0.90;0.90;;;15.60;99.90;;;;;;5138270;28;20437;-84
2024/03/17 13:05:17;;;;;;;2.07;0.83;;;15.80;99.90;;;;;;5143272;28;20502;-83
2024/03/17 13:07:46;;;;;;;1.77;0.70;;;16.00;99.90;;;;;;5142513;28;20467;-83
2024/03/17 13:10:17;;;;;;;0.83;0.77;;;16.00;99.90;;;;;;5142561;28;20451;-83
2024/03/17 13:12:45;;;;;;;4.40;1.13;;;16.10;99.90;;;;;;5126783;28;20439;-84
2024/03/17 13:15:15;;;;;;;0.97;0.90;;;15.80;99.90;;;;;;5120777;28;20467;-82
2024/03/17 13:17:42;;;;;;;0.60;0.60;;;15.60;99.90;;;;;;5119638;28;20463;-82
2024/03/17 13:20:15;;;;;;;0.60;0.60;;;15.60;99.90;;;;;;5119833;28;20493;-82
2024/03/17 13:22:42;;;;;;;0.63;0.63;;;15.60;99.90;;;;;;5121095;28;20496;-82
2024/03/17 13:25:17;;;;;;;0.57;0.57;;;15.50;99.90;;;;;;5120813;28;20503;-82
2024/03/17 13:27:45;;;;;;;2.03;0.50;;;15.60;99.90;;;;;;5118602;28;20454;-82
2024/03/17 13:30:13;;;;;;;0.70;0.60;;;15.40;99.90;;;;;;5118891;28;20462;-81
2024/03/17 13:32:44;;;;;;;2.10;1.07;;;15.30;99.90;;;;;;5118922;28;20439;-81
2024/03/17 13:35:17;;;;;;;1.40;1.00;;;15.40;99.90;;;;;;5118574;28;20432;-82
2024/03/17 13:37:43;;;;;;;1.70;0.60;;;15.50;99.90;;;;;;5118552;28;20459;-81
2024/03/17 13:40:12;;;;;;;0.80;0.80;;;15.40;99.90;;;;;;5118230;28;20846;-81
2024/03/17 13:42:39;;;;;;;2.73;0.93;;;15.40;99.90;;;;;;5118484;28;20508;-81
2024/03/17 13:45:10;;;;;;;0.80;0.70;;;15.30;99.90;;;;;;5118035;28;20447;-81